India Meteorological Department
Airport METARs
Date : 24-06-2018
Sl. # Airport METAR
1 Agartala VEAT 240000Z 14003KT 5000 BR FEW018 BKN100 26/25 Q1002 NOSIG=
2 Ahmedabad VAAH 240025Z 11509KT 3000 -TSRA SCT012 SCT020 BKN080 FEW030CB 27/23 Q1003 TEMPO 2000TSRA=
3 Amritsar VIAR 240030Z 00000KT 3000 BR NSC 27/21 Q1000 NOSIG=
4 Aurangabad VAAU 240000Z 25005KT 6000 SCT020 SCT025 BKN100 23/22 Q1005 NOSIG=
5 Bangalore VOBL 240030Z 27009KT 6000 SCT010 SCT080 21/21 Q1012 NOSIG=
6 Baroda VABO 240030Z 10005KT 2000 TSRA BKN012 SCT020 FEW030CB OVC080 27/25 Q1002 NOSIG=
7 Bhopal VABP 240000Z 25003KT 6000 NSC 25/22 Q1004 NO SIG=
8 Bhubaneswar VEBS 240030Z 26004KT 3000 HZ BKN018 BKN100 28/27 Q1002 NOSIG=
9 Bhuntar VIBR 240030Z 00000KT 6000 NSC 17/13 Q1008=
10 Chennai VOMM 240030Z 23006KT 6000 BKN018 30/22 Q1005 NOSIG=
11 Coimbatore VOCB 240030Z 20008KT 5000 BR FEW015 SCT080 23/22 Q1009 NOSIG=
12 Colombo VCBI 240040Z 24006KT 200V300 9000 FEW012 SCT016 24/23 Q1009 RESHRA NOSIG=
13 Delhi VIDP 240030Z 34005KT 3000 HZ SCT040 BKN100 34/18 Q1000 NOSIG =
14 Dehradun VIDN 240030Z 02002KT 4000 HZ FEW080 24/21 Q1001 =
15 Gauhati VEGT 240030Z 00000KT 3000 -RA FEW010 SCT018 FEW025CB OVC090 29/28 Q1001 NOSIG=
16 Gaya VEGY 240030Z NIL=
17 Hyderabad VOHS 240030Z 26005KT 6000 SCT020 SCT100 23/22 Q1007 NOSIG=
18 Indore VAID 240000Z 00000KT 4000 SCT020 BKN100 23/22 Q1004=
19 Jaipur VIJP 240030Z 33004KT 2000 HZ SCT035 BKN100 33/18 Q1001 NOSIG=
20 Kochi VOCI 240030Z 00000KT 3000 BR SCT012 BKN080 25/24 Q1008 TEMPO 2000 BR=
21 Kolkata VECC 240030Z 20007KT 3200 HZ SCT020 BKN100 29/27 Q1000 NOSIG=
22 Kozhikode VOCL 240030Z 00000KT 6000 SCT012 BKN080 24/22 Q1008 NOSIG=
23 Lucknow VILK 240030Z 09003KT 3000 HZ FEW020 SCT100 31/26 Q0998 NOSIG=
24 Madurai VOMD 240000Z 27003KT 6000 FEW018 SCT100 27/21 Q1007 NOSIG=
25 Mohanbari VEMN 240030Z 00000KT 1500 -RA FEW010 SCT018 BKN090 25/25 Q1002 TEMPO 2000 -RA=
26 Mumbai VABB 240030Z 18004KT 2500 HZ FEW012 SCT018 FEW030CB OVC080 26/24 Q1003 TEMPO 1500 SHRA=
27 Nagpur VANP 240030Z 00000KT 5000 HZ SCT100 26/24 Q1003 NOSIG=
28 Patna VEPT 240030Z 00000KT 3500 HZ FEW100 SCT250 30/26 Q0998 NOSIG=
29 Raipur VERP 240030Z 21005KT 5000 HZ SCT100 27/25 Q1003 NOSIG=
30 Surat VASU 240030Z 00000KT 5000 TS SCT010 FEW030CB BKN080 27/26 Q1001=
31 Ranchi VERC 240030Z 25002KT 3000 HZ SCT020 FEW030CB BKN100 26/23 Q1004 NOSIG=
32 Trichy VOTR 240030Z 28005KT 6000 FEW016 BKN100 28/21 Q1006 NOSIG=
33 Trivandrum VOTV 240030Z 03004KT 3000 HZ FEW010 SCT015 26/24 Q1008 BECMG 4000 HZ=
34 Udaipur VAUD 240000Z 20005KT 4000 HZ FEW030 SCT100 29/23 Q1003 NOSIG=
35 Varanasi VEBN 240030Z VRB02KT 2500 HZ FEW025 31/25 Q0998 NOSIG=
36 Vizag VOVZ 240030Z 27008KT 6000 FEW014 FEW025CB SCT090 28/25 Q1002 NOSIG=
37 Male VRMM 240010Z NIL=
38 Gan VRMG 232300Z 20005KT 9999 FEW018 27/24 Q1010 NOSIG=
39 Kathmandu VNKT 240050Z VRB02KT 5000 BR FEW015 SCT030 22/20 Q1009 NOSIG=
40 Dhaka VGHS 240030Z 14008KT 3500 HZ SCT012 BKN100 27/25 Q1002 NOSIG=
41 Colombo VCBI 240040Z 24006KT 200V300 9000 FEW012 SCT016 24/23 Q1009 RESHRA NOSIG=
42 Karachi OPKC 240025Z 26006KT 6000 BKN020 30/22 Q0999 NOSIG=
43 Lahore OPLA 240025Z 00000KT 4000 FU NSC 29/22 Q0999 A29.52=
44 Leh VILH 232330Z 29010G20KT 6000 SOCC FW060 BKN090 15/M01 Q1021 NOSIG RMK K-ANC REST AC S/R:0510/0539=
45 Sri Nagar VISR 240030Z VRB02KT 4000 FU FEW100 13/12 Q1016 TEMPO 3000M=
46 Jammu VIJU 240030Z 36004KT 6000 NSC 28/14 Q0999 NOSIG=
47 Gwalior VIGR 240000Z 23003KT 4000HZ SCT100 32/21 Q0998=
48 Pune VAPO 240030Z 27005KT 6000 FEW020 SCT030 22/20 Q1007 NOSIG=

 

--- End of List ---